This is the latest recevied weather packets stored in our database for station/object KE4AMH. If no packets are shown the sender has not sent any weather packets the latest 1 day(s).
| Time | Temp. | Humidity | Pressure | Rain* | Wind** | Luminosity | Snow |
|---|---|---|---|---|---|---|---|
| 1778084315 | 22.78° C | 75% | 1015.7 hPa | 0 mm | - | 106 W/m² | - |
| 1778084012 | 23.33° C | 73% | 1015.8 hPa | 0 mm | - | 91 W/m² | - |
| 1778083105 | 23.33° C | 73% | 1015.4 hPa | 0 mm | - | 175 W/m² | - |
| 1778082801 | 23.33° C | 73% | 1015.3 hPa | 0 mm | - | 396 W/m² | - |
| 1778080463 | 22.22° C | 77% | 1015.1 hPa | 0 mm | - | 361 W/m² | - |
| 1778080161 | 21.67° C | 77% | 1015.4 hPa | 0 mm | - | 388 W/m² | - |
| 1778078039 | 20.56° C | 79% | 1015.1 hPa | 0 mm | - | 174 W/m² | - |
| 1778077435 | 20.56° C | 80% | 1014.5 hPa | 0 mm | - | 161 W/m² | - |
| 1778077133 | 20.56° C | 80% | 1014.4 hPa | 0 mm | - | 170 W/m² | - |
| 1778075619 | 20° C | 80% | 1014.3 hPa | 0 mm | - | 99 W/m² | - |
| 1778074709 | 20° C | 79% | 1014.5 hPa | 0 mm | - | 131 W/m² | - |
| 1778072587 | 19.44° C | 79% | 1014.2 hPa | 0 mm | - | 67 W/m² | - |
| 1778071983 | 18.89° C | 79% | 1014.9 hPa | 0 mm | - | 70 W/m² | - |
| 1778071378 | 18.89° C | 78% | 1015 hPa | 0 mm | - | 33 W/m² | - |
| 1778069866 | 18.89° C | 77% | 1014.6 hPa | 0 mm | - | 27 W/m² | - |
| 1778068655 | 18.89° C | 76% | 1013.7 hPa | 0 mm | - | 53 W/m² | - |
| 1778068353 | 18.89° C | 76% | 1014.2 hPa | 0 mm | - | 38 W/m² | - |
| 1778067748 | 18.33° C | 75% | 1014.5 hPa | 0 mm | - | 16 W/m² | - |
| 1778065933 | 18.33° C | 74% | 1014.2 hPa | 0 mm | - | 16 W/m² | - |
| 1778065629 | 18.33° C | 74% | 1014.1 hPa | 0 mm | - | 11 W/m² | - |
| 1778065327 | 18.33° C | 74% | 1013.9 hPa | 0 mm | - | 7 W/m² | - |
| 1778061997 | 18.33° C | 72% | 1013.1 hPa | 0 mm | - | 0 W/m² | - |
| 1778061393 | 18.89° C | 71% | 1013 hPa | 0 mm | - | 0 W/m² | - |
| 1778060183 | 18.89° C | 70% | 1013.4 hPa | 0 mm | - | 0 W/m² | - |
| 1778059274 | 18.89° C | 68% | 1012.9 hPa | 0 mm | - | 0 W/m² | - |
* Rain latest hour (hover to see other rain measurements)
** Current wind speed in m/s (hover to see current wind gust speed)